Time;durP1;ratioP1;P1;durP2;ratioP2;P2;SDS_P1;SDS_P2;PMS_P1;PMS_P2;Temp;Humidity;BMP_temperature;BMP_pressure;BME280_temperature;BME280_humidity;BME280_pressure;Samples;Min_cycle;Max_cycle;Signal;HPM_P1;HPM_P2
2022/03/29 00:01:05;;;;;;;15.87;14.27;;;20.40;96.00;;;;;;5050128;28;20226;-73
2022/03/29 00:03:33;;;;;;;17.33;15.93;;;20.40;96.00;;;;;;5052755;28;20188;-73
2022/03/29 00:06:00;;;;;;;15.70;14.40;;;20.50;96.00;;;;;;5051263;28;20648;-73
2022/03/29 00:08:27;;;;;;;14.80;13.80;;;20.50;95.80;;;;;;5054490;28;20199;-73
2022/03/29 00:10:55;;;;;;;13.90;12.90;;;20.50;95.80;;;;;;5051792;28;20245;-74
2022/03/29 00:13:22;;;;;;;14.10;12.70;;;20.40;95.70;;;;;;5054076;28;20596;-74
2022/03/29 00:15:50;;;;;;;14.63;13.27;;;20.40;95.70;;;;;;5055480;28;20647;-72
2022/03/29 00:18:18;;;;;;;13.90;12.80;;;20.40;95.60;;;;;;5055077;28;20714;-73
2022/03/29 00:20:45;;;;;;;14.53;13.13;;;20.40;95.60;;;;;;5052372;28;20233;-74
2022/03/29 00:23:12;;;;;;;13.40;12.20;;;20.40;95.50;;;;;;5054704;28;20246;-73
2022/03/29 00:25:40;;;;;;;14.60;13.50;;;20.50;95.60;;;;;;5053765;28;20172;-73
2022/03/29 00:28:07;;;;;;;16.37;14.93;;;20.60;95.70;;;;;;5053762;28;20192;-72
2022/03/29 00:30:34;;;;;;;17.07;15.73;;;20.70;95.50;;;;;;5053059;28;20619;-73
2022/03/29 00:33:02;;;;;;;17.47;16.10;;;20.80;95.40;;;;;;5054184;28;20234;-72
2022/03/29 00:35:30;;;;;;;17.87;16.40;;;20.80;95.40;;;;;;5054468;28;20183;-73
2022/03/29 00:37:57;;;;;;;16.13;14.97;;;20.80;95.40;;;;;;5054530;28;20174;-73
2022/03/29 00:40:24;;;;;;;14.50;13.47;;;20.80;95.10;;;;;;5053588;28;20207;-73
2022/03/29 00:42:52;;;;;;;13.97;12.87;;;20.80;95.10;;;;;;5052940;28;20184;-73
2022/03/29 00:45:19;;;;;;;12.20;11.20;;;20.90;95.10;;;;;;5054454;28;20627;-74
2022/03/29 00:47:47;;;;;;;11.07;10.03;;;20.80;94.80;;;;;;5054189;28;20347;-73
2022/03/29 00:50:14;;;;;;;11.23;10.23;;;20.80;94.80;;;;;;5051784;28;20219;-72
2022/03/29 00:52:42;;;;;;;8.97;8.10;;;20.80;94.90;;;;;;5053930;28;20172;-73
2022/03/29 00:55:13;;;;;;;8.60;7.90;;;20.80;94.60;;;;;;5054227;28;20180;-73
2022/03/29 00:57:42;;;;;;;10.90;9.93;;;20.70;94.50;;;;;;5054225;28;20180;-72
2022/03/29 01:00:10;;;;;;;11.27;10.30;;;20.80;94.70;;;;;;5053336;28;20175;-73
2022/03/29 01:02:37;;;;;;;11.00;10.30;;;20.90;94.80;;;;;;5052386;28;20199;-73
2022/03/29 01:05:05;;;;;;;9.87;9.20;;;20.80;94.50;;;;;;5053727;28;20206;-73
2022/03/29 01:07:32;;;;;;;10.10;9.37;;;20.80;94.30;;;;;;5053870;28;20243;-72
2022/03/29 01:10:01;;;;;;;10.30;9.60;;;20.80;94.30;;;;;;5052894;28;20249;-72
2022/03/29 01:12:31;;;;;;;9.40;8.70;;;20.90;94.50;;;;;;5054087;28;20175;-72
2022/03/29 01:15:01;;;;;;;8.80;8.13;;;20.90;94.40;;;;;;5053895;28;20609;-73
2022/03/29 01:17:39;;;;;;;8.00;7.40;;;21.00;94.40;;;;;;5053526;28;20176;-73
2022/03/29 01:20:16;;;;;;;7.70;7.10;;;21.00;94.20;;;;;;5052663;28;20184;-73
2022/03/29 01:22:46;;;;;;;9.40;8.53;;;21.10;94.10;;;;;;5053603;28;20298;-72
2022/03/29 01:25:33;;;;;;;9.50;8.40;;;21.10;94.00;;;;;;5053792;28;20258;-72
2022/03/29 01:28:03;;;;;;;8.17;7.67;;;21.20;94.20;;;;;;5053468;28;20211;-72
2022/03/29 01:30:31;;;;;;;6.70;6.10;;;21.30;93.80;;;;;;5052577;28;20227;-72
2022/03/29 01:33:01;;;;;;;7.10;6.40;;;21.30;93.50;;;;;;5052807;28;20168;-71
2022/03/29 01:35:30;;;;;;;5.47;5.00;;;21.30;93.50;;;;;;5053207;28;20234;-71
2022/03/29 01:37:58;;;;;;;4.87;4.57;;;21.30;92.90;;;;;;5053379;28;20740;-71
2022/03/29 01:40:27;;;;;;;5.70;5.30;;;21.30;93.30;;;;;;5053366;28;20191;-71
2022/03/29 01:42:58;;;;;;;4.97;4.57;;;21.40;93.20;;;;;;5052946;28;20560;-72
2022/03/29 01:45:31;;;;;;;4.70;4.30;;;21.40;93.00;;;;;;5053025;28;20176;-71
2022/03/29 01:47:59;;;;;;;5.57;4.70;;;21.40;92.70;;;;;;5051993;28;20628;-72
2022/03/29 01:50:27;;;;;;;6.10;5.53;;;21.50;92.70;;;;;;5052726;28;20222;-71
2022/03/29 01:52:54;;;;;;;5.27;4.77;;;21.80;92.50;;;;;;5052851;28;20547;-72
2022/03/29 01:55:23;;;;;;;4.53;4.20;;;21.80;92.10;;;;;;5050005;28;20186;-72
2022/03/29 01:57:53;;;;;;;4.43;3.23;;;21.90;92.10;;;;;;5053104;28;20305;-72
2022/03/29 02:00:34;;;;;;;5.23;3.47;;;22.10;91.60;;;;;;5050735;28;20646;-71
2022/03/29 02:03:04;;;;;;;2.70;2.23;;;22.30;90.90;;;;;;5041610;28;20210;-71
2022/03/29 02:05:32;;;;;;;3.20;2.87;;;22.30;90.60;;;;;;5050511;28;20639;-71
2022/03/29 02:08:01;;;;;;;4.50;3.10;;;22.60;90.80;;;;;;5050850;28;20235;-71
2022/03/29 02:10:29;;;;;;;4.73;2.53;;;22.80;90.70;;;;;;5050755;28;20690;-72
2022/03/29 02:12:57;;;;;;;1.97;1.87;;;23.00;89.80;;;;;;5037477;28;20216;-71
2022/03/29 02:15:24;;;;;;;2.43;1.60;;;23.40;88.60;;;;;;5050375;28;20183;-72
2022/03/29 02:17:52;;;;;;;2.73;1.40;;;23.80;87.60;;;;;;5050001;28;20196;-72
2022/03/29 02:20:21;;;;;;;3.90;1.20;;;23.90;86.10;;;;;;5052129;28;20675;-72
2022/03/29 02:22:49;;;;;;;3.70;1.30;;;23.90;86.70;;;;;;5052172;28;20176;-72
2022/03/29 02:25:16;;;;;;;2.27;1.10;;;24.10;85.50;;;;;;5052232;28;20598;-72
2022/03/29 02:27:45;;;;;;;2.60;1.30;;;24.10;84.60;;;;;;5044237;28;20176;-73
2022/03/29 02:30:16;;;;;;;1.47;1.00;;;24.40;85.60;;;;;;5045997;28;20215;-73
2022/03/29 02:32:44;;;;;;;5.03;1.03;;;24.60;83.40;;;;;;5052119;28;20230;-74
2022/03/29 02:35:12;;;;;;;1.20;1.03;;;24.90;82.60;;;;;;5033767;28;20181;-74
2022/03/29 02:37:40;;;;;;;1.50;0.90;;;24.80;82.00;;;;;;5046723;28;20184;-72
2022/03/29 02:40:09;;;;;;;1.87;0.83;;;24.80;80.80;;;;;;5046860;28;20199;-73
2022/03/29 02:42:48;;;;;;;2.50;1.23;;;24.70;81.10;;;;;;5051589;28;20218;-74
2022/03/29 02:45:17;;;;;;;1.40;0.87;;;24.80;83.10;;;;;;5053478;28;20255;-75
2022/03/29 02:47:46;;;;;;;2.03;1.13;;;24.90;80.90;;;;;;5055200;28;20216;-75
2022/03/29 02:50:15;;;;;;;2.97;1.03;;;24.30;82.40;;;;;;5054786;28;20226;-75
2022/03/29 02:52:50;;;;;;;2.57;1.30;;;23.80;85.10;;;;;;5054147;28;20176;-74
2022/03/29 02:55:18;;;;;;;2.13;1.10;;;23.50;84.10;;;;;;5052685;28;20214;-75
2022/03/29 02:57:46;;;;;;;2.80;1.30;;;23.40;85.10;;;;;;5055666;28;20182;-75
2022/03/29 03:00:16;;;;;;;3.83;1.30;;;23.40;86.20;;;;;;5055346;28;20184;-74
2022/03/29 03:02:48;;;;;;;3.73;1.30;;;23.80;86.20;;;;;;5055343;28;20275;-74
2022/03/29 03:05:17;;;;;;;2.23;1.03;;;24.30;83.60;;;;;;5044076;28;20234;-73
2022/03/29 03:07:45;;;;;;;2.40;1.23;;;24.80;81.50;;;;;;5054753;28;20228;-73
2022/03/29 03:10:13;;;;;;;3.93;1.53;;;24.40;82.70;;;;;;5055924;28;20218;-74
2022/03/29 03:12:42;;;;;;;4.00;2.00;;;24.20;84.10;;;;;;5056503;28;20168;-77
2022/03/29 03:15:12;;;;;;;6.43;2.30;;;24.00;84.90;;;;;;5051060;28;20198;-76
2022/03/29 03:17:39;;;;;;;4.90;2.30;;;23.80;85.20;;;;;;5054401;28;20204;-77
2022/03/29 03:20:08;;;;;;;5.23;2.27;;;24.00;84.90;;;;;;5055395;28;20211;-75
2022/03/29 03:22:42;;;;;;;4.07;1.77;;;24.00;84.60;;;;;;5053852;28;20160;-77
2022/03/29 03:25:10;;;;;;;2.47;1.30;;;24.00;84.60;;;;;;5055577;28;20420;-75
2022/03/29 03:27:40;;;;;;;6.77;1.47;;;23.80;83.90;;;;;;5055281;28;20268;-76
2022/03/29 03:30:16;;;;;;;4.10;1.33;;;23.90;84.20;;;;;;5055832;28;20207;-76
2022/03/29 03:32:44;;;;;;;3.87;0.90;;;23.90;84.20;;;;;;5052998;28;20249;-77
2022/03/29 03:35:12;;;;;;;5.77;1.17;;;23.70;84.20;;;;;;5049837;28;20175;-76
2022/03/29 03:37:40;;;;;;;3.50;1.30;;;23.50;84.30;;;;;;5052719;28;20168;-76
2022/03/29 03:40:09;;;;;;;5.97;1.40;;;23.50;84.60;;;;;;5049432;28;20192;-77
2022/03/29 03:42:37;;;;;;;2.20;1.00;;;23.60;84.10;;;;;;5054607;28;20244;-75
2022/03/29 03:45:06;;;;;;;3.37;1.20;;;23.60;84.60;;;;;;5055088;28;20191;-76
2022/03/29 03:47:34;;;;;;;4.40;1.30;;;23.50;84.20;;;;;;5054301;28;20183;-78
2022/03/29 03:50:03;;;;;;;3.43;1.00;;;23.40;85.30;;;;;;5054626;28;20596;-76
2022/03/29 03:52:32;;;;;;;4.93;1.10;;;23.30;84.40;;;;;;5054628;28;20192;-75
2022/03/29 03:54:59;;;;;;;3.50;1.20;;;23.30;84.60;;;;;;5052451;28;20621;-76
2022/03/29 03:57:26;;;;;;;3.37;1.33;;;23.40;84.50;;;;;;5051854;28;20178;-76
2022/03/29 03:59:56;;;;;;;3.43;1.10;;;23.30;84.20;;;;;;5046239;28;20196;-77
2022/03/29 04:02:24;;;;;;;4.13;1.20;;;23.30;83.40;;;;;;5053124;28;20191;-76
2022/03/29 04:04:51;;;;;;;4.47;1.20;;;23.30;83.90;;;;;;5052172;28;20199;-77
2022/03/29 04:07:19;;;;;;;5.70;1.53;;;23.30;83.90;;;;;;5041236;28;20588;-77
2022/03/29 04:09:46;;;;;;;7.90;2.07;;;23.30;83.60;;;;;;5042044;28;20211;-77
2022/03/29 04:12:14;;;;;;;4.40;1.20;;;23.30;83.60;;;;;;5044011;28;20226;-77
2022/03/29 04:14:41;;;;;;;5.43;1.43;;;23.10;83.40;;;;;;5053583;28;20183;-77
2022/03/29 04:17:12;;;;;;;2.77;1.07;;;23.20;83.90;;;;;;5054009;28;20183;-78
2022/03/29 04:19:39;;;;;;;4.53;1.40;;;23.20;83.90;;;;;;5049768;28;20242;-76
2022/03/29 04:22:07;;;;;;;6.00;1.20;;;23.30;83.50;;;;;;5052743;28;20211;-75
2022/03/29 04:24:35;;;;;;;3.97;1.17;;;23.20;82.50;;;;;;5052248;28;20643;-75
2022/03/29 04:27:02;;;;;;;3.13;1.03;;;23.20;84.00;;;;;;5050866;28;20544;-75
2022/03/29 04:29:30;;;;;;;3.30;1.10;;;23.20;84.20;;;;;;5048757;28;20220;-75
2022/03/29 04:31:57;;;;;;;4.87;1.23;;;23.10;83.80;;;;;;5050737;28;20180;-75
2022/03/29 04:34:25;;;;;;;6.43;2.90;;;23.20;83.80;;;;;;5052699;28;20184;-75
2022/03/29 04:36:52;;;;;;;8.67;2.70;;;23.30;84.00;;;;;;5040726;28;20204;-74
2022/03/29 04:39:20;;;;;;;12.67;3.80;;;23.20;84.50;;;;;;5040989;28;20681;-76
2022/03/29 04:41:47;;;;;;;6.77;3.13;;;23.20;85.10;;;;;;5050585;28;20216;-75
2022/03/29 04:44:14;;;;;;;20.20;7.50;;;23.10;84.90;;;;;;5048137;28;20790;-75
2022/03/29 04:46:42;;;;;;;10.63;2.67;;;23.00;85.20;;;;;;5050485;28;20208;-74
2022/03/29 04:49:09;;;;;;;4.93;1.47;;;22.90;85.10;;;;;;5051481;28;20230;-76
2022/03/29 04:51:36;;;;;;;8.47;2.43;;;22.80;85.80;;;;;;5054400;28;20172;-75
2022/03/29 04:54:04;;;;;;;11.67;2.60;;;22.90;86.10;;;;;;5053893;28;20728;-74
2022/03/29 04:56:33;;;;;;;14.20;3.73;;;23.10;85.30;;;;;;5053687;28;20250;-74
2022/03/29 04:59:00;;;;;;;12.67;7.40;;;23.30;85.10;;;;;;5053510;28;20191;-74
2022/03/29 05:01:27;;;;;;;9.37;3.87;;;23.40;83.70;;;;;;5052979;28;20234;-75
2022/03/29 05:03:55;;;;;;;6.90;1.87;;;23.40;83.30;;;;;;5052797;28;20566;-74
2022/03/29 05:06:22;;;;;;;10.60;1.80;;;23.40;83.90;;;;;;5053634;28;20216;-76
2022/03/29 05:08:49;;;;;;;6.00;1.50;;;23.50;84.20;;;;;;5042201;28;20209;-75
2022/03/29 05:11:17;;;;;;;6.43;1.47;;;23.60;83.50;;;;;;5049750;28;20179;-75
2022/03/29 05:13:44;;;;;;;3.77;1.20;;;23.60;83.60;;;;;;5056146;28;20183;-75
2022/03/29 05:16:12;;;;;;;5.20;1.33;;;23.50;82.90;;;;;;5051805;28;20547;-75
2022/03/29 05:18:39;;;;;;;5.00;1.40;;;23.60;83.90;;;;;;5047388;28;20263;-76
2022/03/29 05:21:08;;;;;;;4.23;1.10;;;23.80;82.20;;;;;;5046379;28;20341;-76
2022/03/29 05:23:35;;;;;;;8.70;1.93;;;23.80;82.10;;;;;;5053174;28;20180;-75
2022/03/29 05:26:02;;;;;;;5.40;1.50;;;23.70;82.10;;;;;;5053198;28;20187;-75
2022/03/29 05:28:30;;;;;;;8.03;1.80;;;23.80;81.90;;;;;;5052442;28;20193;-77
2022/03/29 05:30:57;;;;;;;5.53;1.40;;;23.80;81.50;;;;;;5052745;28;20172;-76
2022/03/29 05:33:25;;;;;;;5.30;1.23;;;24.00;81.30;;;;;;5052287;28;20600;-75
2022/03/29 05:35:52;;;;;;;7.90;1.40;;;24.30;79.30;;;;;;5051809;28;20221;-76
2022/03/29 05:38:19;;;;;;;5.53;1.70;;;24.00;79.80;;;;;;5050970;28;20579;-75
2022/03/29 05:40:47;;;;;;;11.83;1.70;;;24.10;80.80;;;;;;5052606;28;20180;-75
2022/03/29 05:43:14;;;;;;;5.37;1.87;;;24.30;81.00;;;;;;5053013;28;20647;-76
2022/03/29 05:45:42;;;;;;;10.43;1.57;;;24.50;79.70;;;;;;5053149;28;20172;-74
2022/03/29 05:50:55;;;;;;;7.47;2.30;;;24.60;78.50;;;;;;5053221;28;20194;-75
2022/03/29 05:53:23;;;;;;;6.90;1.70;;;24.60;78.40;;;;;;5052508;28;20542;-74
2022/03/29 05:55:51;;;;;;;7.63;2.13;;;24.60;79.10;;;;;;5052396;28;20219;-75
2022/03/29 05:58:18;;;;;;;8.10;1.60;;;24.50;79.30;;;;;;5051649;28;20737;-75
2022/03/29 06:00:46;;;;;;;11.10;2.43;;;24.40;79.30;;;;;;5051687;28;20705;-75
2022/03/29 06:03:13;;;;;;;6.60;1.70;;;24.30;79.90;;;;;;5050357;28;20184;-75
2022/03/29 06:05:42;;;;;;;11.60;2.00;;;24.20;80.60;;;;;;5044010;28;20644;-75
2022/03/29 06:08:11;;;;;;;8.47;1.83;;;24.10;80.90;;;;;;5050843;28;20232;-76
2022/03/29 06:10:38;;;;;;;6.23;2.00;;;23.80;81.80;;;;;;5050640;28;20223;-75
2022/03/29 06:13:08;;;;;;;9.47;2.13;;;23.70;82.40;;;;;;5049925;28;20215;-75
2022/03/29 06:15:36;;;;;;;9.17;2.53;;;23.60;82.00;;;;;;5049954;28;20190;-75
2022/03/29 06:18:04;;;;;;;9.67;1.60;;;23.60;82.60;;;;;;5050796;28;20212;-75
2022/03/29 06:20:32;;;;;;;8.33;1.80;;;23.70;82.30;;;;;;5047767;28;20176;-76
2022/03/29 06:22:59;;;;;;;8.93;1.90;;;23.70;82.10;;;;;;5051508;28;20282;-75
2022/03/29 06:25:27;;;;;;;6.97;1.60;;;23.60;82.70;;;;;;5051596;28;20279;-76
2022/03/29 06:28:14;;;;;;;5.93;1.50;;;23.50;83.60;;;;;;5048326;28;20623;-77
2022/03/29 06:30:42;;;;;;;5.33;1.30;;;23.40;84.20;;;;;;5052000;28;20207;-75
2022/03/29 06:33:10;;;;;;;5.10;1.47;;;23.30;84.30;;;;;;5049490;28;20176;-75
2022/03/29 06:35:38;;;;;;;3.57;1.37;;;23.30;85.00;;;;;;5052102;28;20214;-73
2022/03/29 06:38:07;;;;;;;6.77;1.50;;;23.20;84.80;;;;;;5048456;28;20183;-74
2022/03/29 06:40:35;;;;;;;8.63;1.90;;;23.20;84.80;;;;;;5050276;28;20191;-74
2022/03/29 06:43:03;;;;;;;6.13;2.20;;;23.10;85.00;;;;;;5048971;28;20685;-74
2022/03/29 06:45:31;;;;;;;5.67;1.70;;;23.10;85.40;;;;;;5051351;28;20180;-73
2022/03/29 06:47:59;;;;;;;5.20;1.90;;;23.00;85.10;;;;;;5049297;28;20274;-73
2022/03/29 06:50:27;;;;;;;5.97;1.73;;;22.90;85.70;;;;;;5050433;28;20222;-75
2022/03/29 06:52:55;;;;;;;3.37;1.50;;;23.00;85.90;;;;;;5051040;28;20270;-73
2022/03/29 06:55:22;;;;;;;4.90;1.30;;;22.90;85.90;;;;;;5050295;28;20550;-74
2022/03/29 06:57:50;;;;;;;6.63;1.60;;;22.80;86.10;;;;;;5049188;28;20180;-73
2022/03/29 07:00:17;;;;;;;4.43;1.40;;;22.80;86.50;;;;;;5034674;28;20184;-75
2022/03/29 07:02:45;;;;;;;5.33;1.37;;;22.80;86.70;;;;;;5049660;28;20186;-74
2022/03/29 07:05:14;;;;;;;6.80;1.73;;;22.60;86.90;;;;;;5049940;28;20266;-73
2022/03/29 07:07:45;;;;;;;5.73;1.50;;;22.60;87.30;;;;;;5047454;28;20235;-75
2022/03/29 07:13:02;;;;;;;6.97;4.27;;;22.40;87.90;;;;;;5051471;28;20228;-74
2022/03/29 07:15:30;;;;;;;6.03;3.23;;;22.40;88.50;;;;;;5049523;28;20307;-74
2022/03/29 07:17:59;;;;;;;12.60;4.13;;;22.30;88.40;;;;;;5049885;28;20192;-74
2022/03/29 07:20:27;;;;;;;12.90;3.90;;;22.30;88.60;;;;;;5043725;28;20183;-74
2022/03/29 07:22:56;;;;;;;6.77;2.40;;;22.30;89.00;;;;;;5055307;28;20275;-75
2022/03/29 07:25:25;;;;;;;7.30;2.20;;;22.20;89.50;;;;;;5049353;28;20179;-75
2022/03/29 07:27:53;;;;;;;6.63;2.10;;;22.30;89.90;;;;;;5051652;28;20299;-75
2022/03/29 07:30:22;;;;;;;7.87;2.20;;;22.20;90.00;;;;;;5052782;28;20215;-74
2022/03/29 07:32:52;;;;;;;13.93;6.23;;;22.00;90.20;;;;;;5053794;28;20183;-75
2022/03/29 07:35:21;;;;;;;9.17;5.27;;;22.00;90.80;;;;;;5051188;28;20189;-72
2022/03/29 07:37:49;;;;;;;8.90;4.57;;;21.90;91.30;;;;;;5043913;28;20180;-74
2022/03/29 07:40:19;;;;;;;11.93;4.53;;;21.80;91.50;;;;;;5057315;28;20534;-74
2022/03/29 07:42:47;;;;;;;10.27;3.87;;;21.80;91.70;;;;;;5048345;28;20253;-74
2022/03/29 07:45:16;;;;;;;10.30;2.90;;;21.80;92.00;;;;;;5055134;28;20219;-73
2022/03/29 07:47:44;;;;;;;10.93;2.67;;;21.70;92.10;;;;;;5051619;28;20183;-74
2022/03/29 07:50:12;;;;;;;12.00;2.83;;;21.70;92.40;;;;;;5051397;28;20223;-73
2022/03/29 07:52:42;;;;;;;8.73;3.00;;;21.60;92.50;;;;;;5053533;28;20184;-73
2022/03/29 07:55:12;;;;;;;8.37;3.00;;;21.50;92.50;;;;;;5055474;28;20254;-73
2022/03/29 07:57:40;;;;;;;9.67;3.07;;;21.50;92.70;;;;;;5054892;28;20172;-73
2022/03/29 08:02:56;;;;;;;6.33;3.47;;;21.40;92.70;;;;;;5052376;28;20246;-73
2022/03/29 08:05:24;;;;;;;7.67;3.30;;;21.40;92.90;;;;;;5054037;28;20180;-73
2022/03/29 08:07:52;;;;;;;10.30;3.43;;;21.40;93.00;;;;;;5054358;28;20252;-73
2022/03/29 08:10:19;;;;;;;8.50;3.93;;;21.40;93.10;;;;;;5054834;28;20204;-73
2022/03/29 08:12:47;;;;;;;9.43;4.17;;;21.30;93.10;;;;;;5053742;28;20202;-73
2022/03/29 08:15:14;;;;;;;9.60;4.80;;;21.30;93.20;;;;;;5053042;28;20188;-73
2022/03/29 08:17:42;;;;;;;13.47;4.67;;;21.30;93.30;;;;;;5051301;28;20176;-73
2022/03/29 08:20:10;;;;;;;14.70;5.60;;;21.20;93.40;;;;;;5053873;28;20745;-73
2022/03/29 08:22:37;;;;;;;15.93;5.50;;;21.30;93.60;;;;;;5051731;28;20185;-73
2022/03/29 08:25:05;;;;;;;13.87;5.47;;;21.30;93.80;;;;;;5053349;28;20662;-74
2022/03/29 08:27:32;;;;;;;17.70;5.80;;;21.20;93.50;;;;;;5051945;28;20180;-75
2022/03/29 08:30:00;;;;;;;17.80;5.57;;;21.10;93.20;;;;;;5046195;28;20741;-75
2022/03/29 08:32:27;;;;;;;18.03;5.30;;;20.90;93.20;;;;;;5054708;28;20168;-75
2022/03/29 08:34:54;;;;;;;16.67;5.10;;;20.90;93.10;;;;;;5053772;28;20704;-75
2022/03/29 08:37:23;;;;;;;18.87;6.33;;;20.90;93.20;;;;;;5054215;28;20172;-76
2022/03/29 08:39:50;;;;;;;21.63;6.33;;;20.80;93.20;;;;;;5054372;28;20321;-75
2022/03/29 08:42:18;;;;;;;23.30;5.50;;;20.80;93.20;;;;;;5048048;28;20591;-75
2022/03/29 08:44:46;;;;;;;18.20;5.53;;;20.90;93.40;;;;;;5052639;28;20183;-75
2022/03/29 08:47:15;;;;;;;27.33;5.87;;;20.90;93.20;;;;;;5053924;28;20543;-76
2022/03/29 08:49:45;;;;;;;22.07;5.30;;;20.80;92.90;;;;;;5052308;28;20227;-75
2022/03/29 08:52:13;;;;;;;20.10;5.83;;;20.80;93.00;;;;;;5052595;28;20180;-76
2022/03/29 08:54:40;;;;;;;26.13;5.60;;;20.80;93.10;;;;;;5054227;28;20180;-75
2022/03/29 08:57:08;;;;;;;19.23;5.83;;;20.60;93.20;;;;;;5053893;28;20615;-76
2022/03/29 08:59:35;;;;;;;23.33;6.03;;;20.60;93.30;;;;;;5053726;28;20186;-75
2022/03/29 09:02:10;;;;;;;18.17;6.03;;;20.60;93.30;;;;;;5052708;28;20183;-75
2022/03/29 09:04:37;;;;;;;21.67;6.60;;;20.60;93.30;;;;;;5049309;28;20191;-75
2022/03/29 09:07:05;;;;;;;22.63;6.13;;;20.60;93.40;;;;;;5052948;28;20242;-76
2022/03/29 09:09:39;;;;;;;24.33;9.00;;;20.60;93.50;;;;;;5053089;28;20634;-76
2022/03/29 09:12:19;;;;;;;14.57;5.73;;;20.60;93.70;;;;;;5052309;28;20176;-76
2022/03/29 09:15:01;;;;;;;17.97;6.00;;;20.60;93.70;;;;;;5052426;28;20175;-75
2022/03/29 09:17:40;;;;;;;25.77;6.30;;;20.60;93.70;;;;;;5034599;28;20187;-75
2022/03/29 09:20:13;;;;;;;21.33;6.87;;;20.60;93.80;;;;;;5033351;28;20176;-76
2022/03/29 09:22:44;;;;;;;19.13;6.63;;;20.70;93.80;;;;;;5048649;28;20176;-76
2022/03/29 09:25:26;;;;;;;17.07;6.47;;;20.70;93.90;;;;;;5052988;28;20658;-75
2022/03/29 09:28:12;;;;;;;20.63;6.57;;;20.70;93.90;;;;;;5053359;28;20171;-75
2022/03/29 09:30:43;;;;;;;17.13;5.90;;;20.60;93.90;;;;;;5052782;28;20203;-74
2022/03/29 09:33:14;;;;;;;19.50;6.17;;;20.60;94.00;;;;;;5052100;28;20192;-74
2022/03/29 09:36:07;;;;;;;23.43;6.40;;;20.60;93.90;;;;;;5053364;28;20646;-74
2022/03/29 09:38:42;;;;;;;24.10;6.37;;;20.50;93.90;;;;;;5052588;28;20180;-75
2022/03/29 09:41:28;;;;;;;15.57;5.53;;;20.50;94.00;;;;;;5051861;28;20190;-74
2022/03/29 09:44:09;;;;;;;19.17;5.40;;;20.50;93.90;;;;;;5050475;28;20723;-76
2022/03/29 09:46:56;;;;;;;18.50;5.73;;;20.50;93.90;;;;;;5044397;28;20186;-75
2022/03/29 09:49:24;;;;;;;17.87;5.63;;;20.50;94.00;;;;;;5051712;28;20199;-76
2022/03/29 09:52:11;;;;;;;24.00;5.90;;;20.50;94.00;;;;;;5053352;28;20274;-75
2022/03/29 09:54:38;;;;;;;18.10;5.90;;;20.50;94.00;;;;;;5038417;28;20183;-77
2022/03/29 09:57:06;;;;;;;17.80;6.17;;;20.50;94.00;;;;;;5052521;28;20234;-77
2022/03/29 09:59:33;;;;;;;19.00;7.07;;;20.50;94.10;;;;;;5052454;28;20195;-75
2022/03/29 10:02:03;;;;;;;16.33;6.37;;;20.50;94.10;;;;;;5053249;28;20522;-76
2022/03/29 10:04:31;;;;;;;21.53;6.50;;;20.50;94.10;;;;;;5052220;28;20191;-77
2022/03/29 10:07:03;;;;;;;24.03;7.27;;;20.50;94.20;;;;;;5051518;28;20292;-76
2022/03/29 10:09:35;;;;;;;15.80;6.10;;;20.60;94.30;;;;;;5051887;28;20206;-75
2022/03/29 10:12:06;;;;;;;16.90;6.23;;;20.60;94.30;;;;;;5050382;28;20259;-74
2022/03/29 10:14:36;;;;;;;12.70;5.50;;;20.60;94.30;;;;;;5052210;28;20187;-75
2022/03/29 10:17:06;;;;;;;16.13;5.47;;;20.60;94.30;;;;;;5052275;28;20179;-75
2022/03/29 10:19:38;;;;;;;12.53;5.67;;;20.60;94.20;;;;;;5050549;28;20192;-74
2022/03/29 10:22:06;;;;;;;15.00;6.03;;;20.50;94.20;;;;;;5052078;28;20172;-74
2022/03/29 10:24:33;;;;;;;13.03;6.00;;;20.60;94.20;;;;;;5051529;28;20184;-75
2022/03/29 10:27:02;;;;;;;13.23;5.43;;;20.60;94.30;;;;;;5049023;28;20693;-74
2022/03/29 10:29:31;;;;;;;9.37;5.10;;;20.60;94.30;;;;;;5050104;28;20215;-74
2022/03/29 10:32:07;;;;;;;12.50;5.80;;;20.60;94.30;;;;;;5051948;28;20251;-74
2022/03/29 10:34:42;;;;;;;8.73;4.90;;;20.60;94.40;;;;;;5051167;28;20180;-74
2022/03/29 10:37:21;;;;;;;13.60;5.67;;;20.60;94.40;;;;;;5052857;28;20175;-76
2022/03/29 10:39:54;;;;;;;13.50;6.13;;;20.60;94.50;;;;;;5051919;28;20294;-74
2022/03/29 10:42:43;;;;;;;14.23;5.40;;;20.60;94.60;;;;;;5051613;28;20187;-74
2022/03/29 10:45:18;;;;;;;11.93;6.03;;;20.50;94.60;;;;;;5048056;28;20176;-76
2022/03/29 10:48:09;;;;;;;12.90;7.13;;;20.50;94.70;;;;;;5049419;28;20186;-75
2022/03/29 10:51:06;;;;;;;11.73;6.10;;;20.50;94.80;;;;;;5044247;28;20596;-75
2022/03/29 10:53:48;;;;;;;10.00;6.17;;;20.30;94.80;;;;;;5052671;28;20239;-76
2022/03/29 10:56:19;;;;;;;15.97;6.40;;;20.40;94.90;;;;;;5052247;28;20203;-75
2022/03/29 10:59:08;;;;;;;10.83;6.50;;;20.40;94.90;;;;;;5050971;28;20180;-77
2022/03/29 11:01:40;;;;;;;11.27;6.83;;;20.40;94.90;;;;;;5054556;28;20233;-76
2022/03/29 11:04:27;;;;;;;15.90;8.30;;;20.40;94.90;;;;;;5055118;28;20259;-76
2022/03/29 11:07:06;;;;;;;19.73;9.37;;;20.40;95.00;;;;;;5049194;28;22080;-77
2022/03/29 11:09:35;;;;;;;23.97;11.10;;;20.50;95.20;;;;;;5056265;28;20212;-79
2022/03/29 11:12:03;;;;;;;27.00;11.00;;;20.40;95.40;;;;;;5055863;28;20184;-79
2022/03/29 11:14:34;;;;;;;28.70;11.53;;;20.30;95.50;;;;;;5056149;28;20188;-74
2022/03/29 11:17:13;;;;;;;19.70;11.23;;;20.30;95.70;;;;;;5057861;28;20187;-77
2022/03/29 11:19:46;;;;;;;26.43;12.20;;;20.30;95.70;;;;;;5051316;28;20378;-75
2022/03/29 11:22:34;;;;;;;23.37;10.80;;;20.30;95.90;;;;;;5049558;28;20262;-76
2022/03/29 11:25:05;;;;;;;15.30;9.30;;;20.30;95.90;;;;;;5055545;28;20258;-75
2022/03/29 11:27:36;;;;;;;19.40;7.93;;;20.30;96.00;;;;;;5054018;28;20196;-73
2022/03/29 11:30:08;;;;;;;11.33;7.50;;;20.30;95.90;;;;;;5054554;28;20216;-76
2022/03/29 11:32:39;;;;;;;14.50;7.17;;;20.20;96.00;;;;;;5053434;28;20176;-74
2022/03/29 11:35:08;;;;;;;15.63;7.60;;;20.20;96.20;;;;;;5055128;28;20237;-74
2022/03/29 11:37:41;;;;;;;13.67;6.90;;;20.10;96.00;;;;;;5054261;28;20226;-74
2022/03/29 11:40:14;;;;;;;11.10;7.23;;;20.00;96.10;;;;;;5070076;28;20654;-74
2022/03/29 11:42:50;;;;;;;16.30;7.87;;;20.00;96.10;;;;;;5054918;28;20258;-73
2022/03/29 11:45:19;;;;;;;14.23;8.30;;;20.00;96.20;;;;;;5053551;28;20180;-75
2022/03/29 11:47:56;;;;;;;14.93;8.37;;;20.00;96.20;;;;;;5053453;28;20176;-74
2022/03/29 11:50:39;;;;;;;15.27;7.87;;;20.00;96.20;;;;;;5034428;28;20219;-74
2022/03/29 11:53:19;;;;;;;12.17;7.73;;;19.90;96.00;;;;;;5035080;28;20216;-73
2022/03/29 11:55:57;;;;;;;16.17;8.40;;;19.90;96.10;;;;;;5035342;28;20176;-73
2022/03/29 11:58:27;;;;;;;14.87;8.33;;;19.90;96.10;;;;;;5053234;28;20650;-73
2022/03/29 12:01:02;;;;;;;9.77;7.27;;;19.90;96.10;;;;;;5054082;28;20211;-73
2022/03/29 12:03:35;;;;;;;14.40;8.10;;;19.80;96.10;;;;;;5054015;28;20359;-74
2022/03/29 12:06:14;;;;;;;12.37;8.17;;;19.80;96.10;;;;;;5054117;28;20259;-74
2022/03/29 12:08:51;;;;;;;13.33;7.50;;;19.80;96.10;;;;;;5053324;28;20175;-77
2022/03/29 12:11:24;;;;;;;10.00;6.93;;;19.80;96.10;;;;;;5064409;28;20182;-77
2022/03/29 12:14:05;;;;;;;12.47;7.10;;;19.80;96.20;;;;;;5055336;28;20267;-76
2022/03/29 12:16:43;;;;;;;8.43;6.80;;;19.70;96.20;;;;;;5053934;28;20184;-75
2022/03/29 12:19:18;;;;;;;11.37;7.33;;;19.70;96.30;;;;;;5054334;28;20183;-77
2022/03/29 12:21:56;;;;;;;11.00;6.90;;;19.70;96.30;;;;;;5055380;28;20232;-74
2022/03/29 12:24:25;;;;;;;15.20;7.77;;;19.70;96.30;;;;;;5054719;28;20255;-73
2022/03/29 12:27:06;;;;;;;14.27;7.93;;;19.60;96.40;;;;;;5054385;28;20210;-73
2022/03/29 12:29:39;;;;;;;12.13;7.93;;;19.60;96.40;;;;;;5053891;28;20203;-72
2022/03/29 12:32:07;;;;;;;14.13;8.53;;;19.60;96.40;;;;;;5054687;28;20175;-74
2022/03/29 12:34:35;;;;;;;13.80;8.53;;;19.70;96.50;;;;;;5052766;28;20700;-74
2022/03/29 12:37:05;;;;;;;13.43;9.50;;;19.70;96.50;;;;;;5054679;28;20223;-72
2022/03/29 12:39:38;;;;;;;10.60;9.37;;;19.80;96.60;;;;;;5053650;28;20207;-74
2022/03/29 12:42:14;;;;;;;10.47;9.23;;;19.80;96.60;;;;;;5054422;28;20270;-72
2022/03/29 12:44:55;;;;;;;10.57;9.20;;;19.80;96.50;;;;;;5054231;28;20237;-72
2022/03/29 12:47:24;;;;;;;10.43;9.53;;;19.80;96.60;;;;;;5052546;28;20190;-73
2022/03/29 12:49:52;;;;;;;12.10;9.63;;;19.80;96.50;;;;;;5052852;28;20219;-73
2022/03/29 12:52:20;;;;;;;12.53;9.60;;;19.80;96.50;;;;;;5047923;28;20172;-72
2022/03/29 12:54:53;;;;;;;13.57;9.80;;;19.80;96.60;;;;;;5043623;28;20191;-72
2022/03/29 12:57:23;;;;;;;10.70;9.83;;;19.80;96.60;;;;;;5051687;28;20180;-73
2022/03/29 13:00:02;;;;;;;10.93;9.80;;;19.80;96.60;;;;;;5053262;28;20253;-73
2022/03/29 13:02:41;;;;;;;13.90;9.63;;;19.80;96.60;;;;;;5053381;28;20180;-72
2022/03/29 13:05:10;;;;;;;11.60;9.13;;;19.70;96.60;;;;;;5053591;28;20190;-71